Time;durP1;ratioP1;P1;durP2;ratioP2;P2;SDS_P1;SDS_P2;PMS_P1;PMS_P2;Temp;Humidity;BMP_temperature;BMP_pressure;BME280_temperature;BME280_humidity;BME280_pressure;Samples;Min_cycle;Max_cycle;Signal;HPM_P1;HPM_P2
2022/09/28 00:08:15;;;;;;;5.45;3.15;;;;;;;7.83;82.36;98521.97;30630950;28;96517;-71
2022/09/28 00:23:15;;;;;;;6.40;3.67;;;;;;;7.76;82.11;98501.56;30629376;28;97229;-69
2022/09/28 00:38:16;;;;;;;5.88;3.40;;;;;;;7.54;82.10;98481.41;30627080;28;110102;-71
2022/09/28 00:53:30;;;;;;;5.38;3.85;;;;;;;7.27;81.66;98478.53;30626105;28;96975;-69
2022/09/28 01:08:32;;;;;;;7.10;4.60;;;;;;;6.78;82.33;98469.53;30625216;28;97207;-71
2022/09/28 01:23:35;;;;;;;13.87;5.33;;;;;;;6.57;82.87;98475.63;30623554;28;97475;-72
2022/09/28 01:38:45;;;;;;;7.95;4.97;;;;;;;6.36;83.27;98469.28;30621920;28;96627;-71
2022/09/28 01:53:50;;;;;;;8.10;4.40;;;;;;;6.20;83.72;98475.59;30620618;28;96656;-69
2022/09/28 02:08:54;;;;;;;7.28;4.93;;;;;;;6.08;83.39;98462.03;30618104;28;96622;-71
2022/09/28 02:23:59;;;;;;;7.83;5.30;;;;;;;6.07;83.54;98465.66;30617511;28;96651;-71
2022/09/28 02:39:01;;;;;;;10.88;5.38;;;;;;;5.95;84.07;98467.09;30615558;28;96966;-67
2022/09/28 02:54:09;;;;;;;8.13;5.20;;;;;;;6.39;84.94;98460.97;30613762;28;96606;-70
2022/09/28 03:09:25;;;;;;;6.65;4.45;;;;;;;6.64;84.09;98467.75;30613970;28;96744;-71
2022/09/28 03:24:26;;;;;;;8.05;5.30;;;;;;;6.76;84.23;98475.00;30611138;28;96601;-68
2022/09/28 03:39:26;;;;;;;8.13;5.30;;;;;;;6.83;84.34;98459.19;30609528;28;96852;-67
2022/09/28 03:54:26;;;;;;;7.28;5.55;;;;;;;6.93;83.89;98470.31;30608011;28;105444;-70
2022/09/28 04:09:26;;;;;;;11.10;6.85;;;;;;;6.85;84.21;98461.66;30607261;28;111580;-64
2022/09/28 04:24:27;;;;;;;9.75;6.80;;;;;;;6.82;84.16;98444.34;30610293;28;96646;-71
2022/09/28 04:39:27;;;;;;;11.45;8.68;;;;;;;6.92;84.42;98444.84;30624516;28;96745;-65
2022/09/28 04:54:27;;;;;;;11.52;8.48;;;;;;;7.13;84.47;98447.66;30623463;28;114978;-71
2022/09/28 05:09:28;;;;;;;11.13;7.30;;;;;;;7.23;83.89;98453.44;30621594;28;96665;-71
2022/09/28 05:24:29;;;;;;;9.63;6.90;;;;;;;7.45;84.10;98459.53;30620497;28;104995;-63
2022/09/28 05:39:29;;;;;;;8.30;5.97;;;;;;;7.75;83.59;98446.91;30618638;28;98284;-70
2022/09/28 05:54:29;;;;;;;8.20;5.82;;;;;;;8.22;83.02;98443.66;30617407;28;115770;-67
2022/09/28 06:09:29;;;;;;;7.15;4.70;;;;;;;8.51;82.00;98441.75;30616849;28;111211;-71
2022/09/28 06:24:30;;;;;;;5.57;4.18;;;;;;;9.07;82.67;98438.78;31364364;22;99252;-64
2022/09/28 06:39:30;;;;;;;4.95;3.72;;;;;;;9.98;80.74;98425.78;30857019;28;96888;-63
2022/09/28 06:54:30;;;;;;;4.60;3.13;;;;;;;10.55;78.64;98417.16;30852486;28;112851;-66
2022/09/28 07:09:32;;;;;;;4.90;3.30;;;;;;;11.50;78.52;98414.41;30852013;28;97175;-68
2022/09/28 07:24:32;;;;;;;5.60;2.50;;;;;;;12.28;75.69;98424.69;30849936;28;96675;-66
2022/09/28 07:41:10;;;;;;;4.95;2.85;;;;;;;12.74;73.87;98420.59;30851815;28;103448;-62
2022/09/28 07:54:54;;;;;;;4.70;2.10;;;;;;;13.77;70.55;98403.50;30851133;28;96772;-68
2022/09/28 08:09:54;;;;;;;2.20;1.50;;;;;;;14.52;67.11;98421.31;30871094;28;96711;-67
2022/09/28 08:24:55;;;;;;;2.55;1.77;;;;;;;14.40;62.85;98412.53;30871206;28;98024;-71
2022/09/28 08:39:55;;;;;;;2.83;1.55;;;;;;;15.44;62.65;98404.38;30869048;28;112068;-68
2022/09/28 08:55:23;;;;;;;3.15;1.50;;;;;;;22.12;55.52;98381.34;30867535;28;96656;-63
2022/09/28 09:11:00;;;;;;;3.20;1.00;;;;;;;29.00;36.73;98383.78;30864588;28;97353;-68
2022/09/28 09:26:19;;;;;;;2.57;1.33;;;;;;;27.64;33.79;98369.16;30862561;28;97984;-67
2022/09/28 09:41:44;;;;;;;2.10;1.07;;;;;;;24.20;32.17;98364.84;30862375;28;97449;-63
2022/09/28 09:57:02;;;;;;;1.60;1.00;;;;;;;24.68;32.69;98347.22;30861533;28;96669;-68
2022/09/28 10:12:03;;;;;;;0.70;0.40;;;;;;;21.33;32.18;98349.94;30859895;28;97719;-65
2022/09/28 10:27:11;;;;;;;3.40;0.83;;;;;;;15.97;39.09;98375.34;30858046;28;97175;-62
2022/09/28 10:42:16;;;;;;;0.63;0.60;;;;;;;13.94;44.91;98376.81;30856958;28;96890;-69
2022/09/28 10:57:35;;;;;;;0.90;0.60;;;;;;;11.56;51.85;98418.03;30855880;28;96915;-67
2022/09/28 11:12:44;;;;;;;1.00;0.63;;;;;;;10.25;56.66;98375.13;30852598;28;97278;-71
2022/09/28 11:27:50;;;;;;;1.33;0.80;;;;;;;10.37;58.94;98365.47;30853763;28;97308;-71
2022/09/28 11:43:11;;;;;;;3.13;1.13;;;;;;;10.72;60.67;98348.25;30869193;28;96723;-69
2022/09/28 11:58:21;;;;;;;2.50;1.43;;;;;;;10.76;62.33;98360.09;30873221;28;97499;-66
2022/09/28 12:13:26;;;;;;;3.23;1.23;;;;;;;10.99;63.55;98354.19;30870232;28;97284;-68
2022/09/28 12:28:37;;;;;;;2.90;1.80;;;;;;;11.25;64.05;98336.31;30868339;28;96757;-70
2022/09/28 12:43:40;;;;;;;7.47;3.00;;;;;;;11.46;65.16;98329.75;30867481;28;97292;-67
2022/09/28 12:59:03;;;;;;;4.17;1.80;;;;;;;11.88;65.64;98294.38;30867240;28;96893;-67
2022/09/28 13:14:12;;;;;;;2.17;1.30;;;;;;;12.58;64.92;98285.00;30864284;28;97193;-70
2022/09/28 13:29:16;;;;;;;1.47;1.07;;;;;;;12.05;64.67;98297.28;30861391;28;97814;-71
2022/09/28 13:44:29;;;;;;;3.50;1.77;;;;;;;11.59;65.64;98294.94;30862967;28;97353;-66
2022/09/28 13:59:31;;;;;;;4.17;1.80;;;;;;;11.22;66.03;98299.44;30859805;28;96763;-69
2022/09/28 14:14:50;;;;;;;1.93;1.40;;;;;;;10.91;67.15;98286.00;30859033;28;97497;-66
2022/09/28 14:30:06;;;;;;;3.80;2.70;;;;;;;10.59;68.64;98286.09;30857129;28;97122;-66
2022/09/28 14:45:06;;;;;;;5.20;3.07;;;;;;;10.66;69.39;98273.53;30857777;28;96781;-68
2022/09/28 15:00:17;;;;;;;4.70;2.75;;;;;;;10.75;70.81;98263.41;30854169;28;97035;-68
2022/09/28 15:15:27;;;;;;;2.90;1.70;;;;;;;11.07;71.17;98254.50;30853169;28;96670;-68
2022/09/28 15:30:35;;;;;;;4.50;1.30;;;;;;;11.10;71.54;98275.34;30853981;28;96922;-70
2022/09/28 15:45:38;;;;;;;3.03;1.50;;;;;;;10.96;72.38;98288.00;30854135;28;96585;-71
2022/09/28 16:00:39;;;;;;;2.23;1.20;;;;;;;10.36;72.82;98299.13;30851188;28;96728;-65
2022/09/28 16:15:39;;;;;;;9.88;4.03;;;;;;;9.79;73.78;98316.59;30849419;28;97441;-67
2022/09/28 16:31:22;;;;;;;7.20;2.90;;;;;;;9.32;74.79;98324.72;30864125;28;96846;-64
2022/09/28 16:46:29;;;;;;;5.27;2.27;;;;;;;8.96;75.70;98333.16;30867469;28;97463;-67
2022/09/28 17:01:30;;;;;;;6.40;2.37;;;;;;;8.71;76.36;98349.69;30865676;28;97428;-69
2022/09/28 17:16:31;;;;;;;5.82;2.50;;;;;;;8.37;76.97;98364.72;30863738;28;96673;-67
2022/09/28 17:31:32;;;;;;;4.53;2.43;;;;;;;8.17;77.26;98377.13;30861787;28;96774;-68
2022/09/28 17:46:35;;;;;;;4.63;2.65;;;;;;;8.18;77.64;98390.19;30861608;28;98837;-68
2022/09/28 18:01:37;;;;;;;5.87;3.70;;;;;;;7.93;77.32;98416.41;30860648;28;96599;-67
2022/09/28 18:16:38;;;;;;;4.77;2.83;;;;;;;7.86;78.08;98447.34;30858826;28;97233;-70
2022/09/28 18:31:38;;;;;;;6.85;3.83;;;;;;;8.05;78.16;98462.56;30858189;28;105364;-71
2022/09/28 18:46:41;;;;;;;8.10;4.90;;;;;;;8.16;78.52;98473.63;30857941;28;96635;-67
2022/09/28 19:01:42;;;;;;;12.17;6.43;;;;;;;7.97;77.67;98481.28;30857398;28;97526;-72
2022/09/28 19:16:43;;;;;;;10.02;6.20;;;;;;;7.64;78.07;98487.19;30855103;28;98373;-72
2022/09/28 19:31:44;;;;;;;13.27;7.03;;;;;;;7.48;78.17;98498.06;30852330;28;96588;-73
2022/09/28 19:46:45;;;;;;;14.57;8.03;;;;;;;7.15;79.41;98503.88;30853764;28;96801;-70
2022/09/28 20:01:47;;;;;;;11.10;7.00;;;;;;;6.98;79.22;98529.81;30865063;28;111761;-62
2022/09/28 20:16:47;;;;;;;10.47;6.70;;;;;;;6.77;80.09;98549.94;30871689;28;96736;-71
2022/09/28 20:31:47;;;;;;;17.65;9.05;;;;;;;6.50;80.19;98562.84;30870460;28;97142;-66
2022/09/28 20:46:49;;;;;;;12.40;7.78;;;;;;;6.33;80.37;98593.97;30870329;28;96781;-68
2022/09/28 21:01:50;;;;;;;16.17;8.13;;;;;;;5.97;80.12;98617.59;30868550;28;96706;-66
2022/09/28 21:16:51;;;;;;;16.67;9.07;;;;;;;5.71;80.95;98629.34;30866506;28;96582;-62
2022/09/28 21:31:51;;;;;;;10.90;6.93;;;;;;;5.65;81.96;98635.34;30865570;28;96809;-65
2022/09/28 21:46:51;;;;;;;6.68;4.30;;;;;;;5.69;82.10;98652.50;30864475;28;101520;-68
2022/09/28 22:01:52;;;;;;;8.20;4.40;;;;;;;5.86;81.72;98658.47;30863068;28;96581;-66
2022/09/28 22:16:53;;;;;;;4.93;3.53;;;;;;;5.92;81.62;98660.41;30861287;28;96567;-71
2022/09/28 22:32:00;;;;;;;6.47;3.75;;;;;;;6.03;82.00;98675.06;30859994;28;112341;-68
2022/09/28 22:47:02;;;;;;;8.32;3.70;;;;;;;5.97;81.11;98681.03;30859764;28;96574;-62
2022/09/28 23:02:02;;;;;;;8.32;3.80;;;;;;;5.82;80.94;98691.53;30858489;28;96683;-62
2022/09/28 23:17:03;;;;;;;7.68;4.47;;;;;;;5.60;81.71;98699.28;30855674;28;100478;-62
2022/09/28 23:32:03;;;;;;;7.88;4.90;;;;;;;5.30;81.25;98700.94;30855730;28;96633;-71
2022/09/28 23:47:03;;;;;;;7.60;5.30;;;;;;;5.19;81.58;98702.13;30854740;28;96591;-63
